Luseland, Canada
Current Conditions -  °F | °C
As of 6:00 PM on Wednesday 26 Nov 2014 (Local Time) from CYKY Reporting Station
Overcast Overcast  
Wind Chill:   Ceiling: 9000
Heat Index: 12°   Visibility: 15mi
Dew Point:   Wind: 6mph
Humidity: 85%   Direction: 120°ESE
Pressure: 30.22"   Gusts: NA
Location:  52.08°N, 109.43°W
Report Text: CYKY 270000Z 12005KT 15SM SCT040 OVC090 M11/M13 A3022 RMK SC3AC5 SLP285
Loading
Personal Weather Stations






























Interactive Weather Map New forecast layout! Learn more

10-Day Weather Forecast

Advertisements
Track Severe Weather on mobile